Time;durP1;ratioP1;P1;durP2;ratioP2;P2;SDS_P1;SDS_P2;PMS_P1;PMS_P2;Temp;Humidity;BMP_temperature;BMP_pressure;BME280_temperature;BME280_humidity;BME280_pressure;Samples;Min_cycle;Max_cycle;Signal;HPM_P1;HPM_P2
2023/01/01 00:01:39;;;;;;;7.43;3.00;;;;;;;17.04;71.11;99854.53;5017307;28;20033;-71
2023/01/01 00:04:07;;;;;;;7.95;3.20;;;;;;;16.96;71.59;99865.94;5016376;28;20040;-71
2023/01/01 00:06:33;;;;;;;6.15;2.42;;;;;;;17.02;70.83;99877.88;5031537;28;20521;-71
2023/01/01 00:11:43;;;;;;;5.93;2.40;;;;;;;17.06;70.87;99865.00;5016332;28;20033;-71
2023/01/01 00:14:08;;;;;;;5.10;2.03;;;;;;;17.15;70.38;99870.63;5022708;28;20079;-71
2023/01/01 00:16:34;;;;;;;9.30;2.53;;;;;;;17.20;70.18;99872.91;5029180;28;20049;-71
2023/01/01 00:18:59;;;;;;;7.57;1.73;;;;;;;17.14;70.03;99869.91;5021908;28;20039;-71
2023/01/01 00:21:25;;;;;;;7.10;1.58;;;;;;;17.17;70.58;99865.53;5025343;28;20513;-71
2023/01/01 00:23:50;;;;;;;3.42;1.60;;;;;;;17.10;70.03;99874.63;5048764;28;20120;-71
2023/01/01 00:26:17;;;;;;;3.83;1.45;;;;;;;17.09;69.63;99862.19;5030377;28;20563;-71
2023/01/01 00:28:44;;;;;;;4.63;2.22;;;;;;;17.04;70.14;99878.25;5034294;28;20032;-70
2023/01/01 00:31:13;;;;;;;5.13;1.90;;;;;;;17.12;70.23;99874.22;5039240;28;20056;-71
2023/01/01 00:33:39;;;;;;;2.33;1.30;;;;;;;17.13;69.74;99878.44;5033075;28;20506;-71
2023/01/01 00:36:15;;;;;;;9.35;1.83;;;;;;;17.14;69.96;99877.28;5033777;28;20078;-71
2023/01/01 00:38:42;;;;;;;4.68;1.30;;;;;;;17.11;70.03;99875.41;5032920;28;20044;-71
2023/01/01 00:41:08;;;;;;;4.57;1.50;;;;;;;17.13;69.02;99868.34;5027029;28;20546;-71
2023/01/01 00:43:34;;;;;;;4.88;1.50;;;;;;;17.11;68.44;99856.38;5029362;28;20125;-70
2023/01/01 00:46:01;;;;;;;5.13;1.48;;;;;;;17.07;69.22;99875.44;5036738;28;20036;-71
2023/01/01 00:48:26;;;;;;;5.25;1.63;;;;;;;17.24;69.22;99873.59;5037524;28;20037;-71
2023/01/01 00:50:52;;;;;;;3.88;1.52;;;;;;;17.21;68.75;99868.97;5023217;28;20112;-71
2023/01/01 00:53:19;;;;;;;4.35;1.40;;;;;;;17.17;68.81;99876.44;5035774;28;20060;-71
2023/01/01 00:55:47;;;;;;;3.58;1.23;;;;;;;17.13;68.92;99883.91;5035918;28;20090;-71
2023/01/01 00:58:13;;;;;;;2.38;1.15;;;;;;;17.22;68.89;99891.53;5039406;28;20029;-71
2023/01/01 01:00:38;;;;;;;3.42;1.48;;;;;;;17.19;68.62;99887.66;5037787;28;20045;-71
2023/01/01 01:03:04;;;;;;;2.50;1.08;;;;;;;17.15;69.18;99893.19;5038349;28;20033;-70
2023/01/01 01:05:31;;;;;;;7.95;1.38;;;;;;;17.21;69.00;99895.44;5038696;28;20449;-70
2023/01/01 01:07:57;;;;;;;3.47;1.33;;;;;;;17.25;68.65;99891.44;5035527;28;20036;-70
2023/01/01 01:10:24;;;;;;;8.75;2.08;;;;;;;17.20;68.81;99905.56;5036751;28;20067;-71
2023/01/01 01:12:51;;;;;;;2.95;1.42;;;;;;;17.09;69.38;99902.25;5026613;28;20056;-70
2023/01/01 01:15:17;;;;;;;2.80;1.23;;;;;;;17.22;68.92;99903.19;5031803;28;20501;-70
2023/01/01 01:17:43;;;;;;;2.60;1.45;;;;;;;17.22;68.84;99900.47;5027273;28;20044;-72
2023/01/01 01:20:09;;;;;;;2.97;1.15;;;;;;;17.25;68.40;99901.59;5028821;28;20033;-70
2023/01/01 01:22:35;;;;;;;4.70;1.60;;;;;;;17.11;68.51;99897.19;5028725;28;20056;-72
2023/01/01 01:25:00;;;;;;;3.97;1.48;;;;;;;17.25;68.22;99909.75;5033894;28;20048;-69
2023/01/01 01:27:26;;;;;;;10.77;1.70;;;;;;;17.23;68.32;99914.84;5038157;28;20589;-70
2023/01/01 01:29:52;;;;;;;2.60;1.27;;;;;;;17.26;68.54;99903.09;5027336;28;20120;-69
2023/01/01 01:32:18;;;;;;;2.10;1.38;;;;;;;17.32;68.36;99904.94;5043111;28;20025;-69
2023/01/01 01:34:43;;;;;;;5.25;1.73;;;;;;;17.34;68.04;99913.44;5014674;28;20124;-70
2023/01/01 01:37:09;;;;;;;4.25;1.02;;;;;;;17.36;67.63;99916.53;5032207;28;20155;-69
2023/01/01 01:39:35;;;;;;;4.75;1.27;;;;;;;17.31;68.63;99908.06;5040076;28;20032;-70
2023/01/01 01:42:02;;;;;;;5.25;1.20;;;;;;;17.37;68.91;99922.72;5041209;28;20619;-71
2023/01/01 01:44:43;;;;;;;4.00;1.80;;;;;;;17.38;69.67;99925.00;5036171;28;20049;-69
2023/01/01 01:47:20;;;;;;;2.50;1.30;;;;;;;17.26;70.42;99935.78;5035848;28;20410;-70
2023/01/01 01:49:46;;;;;;;10.13;1.20;;;;;;;17.25;69.35;99921.38;5045335;28;20815;-70
2023/01/01 01:52:11;;;;;;;1.20;1.00;;;;;;;17.22;69.11;99913.28;5023985;28;20026;-69
2023/01/01 01:54:38;;;;;;;1.27;0.90;;;;;;;17.17;69.18;99928.91;5040887;28;20033;-69
2023/01/01 01:57:08;;;;;;;3.75;1.63;;;;;;;17.25;68.86;99915.94;5041254;28;20483;-69
2023/01/01 01:59:41;;;;;;;5.78;1.45;;;;;;;17.21;68.13;99917.97;5041094;28;20069;-69
2023/01/01 02:02:15;;;;;;;3.03;1.42;;;;;;;17.27;67.99;99919.00;5043256;28;20041;-69
2023/01/01 02:04:41;;;;;;;3.50;1.42;;;;;;;17.37;68.01;99931.66;5041805;28;20038;-70
2023/01/01 02:07:07;;;;;;;3.28;1.15;;;;;;;17.27;68.03;99924.47;5039899;28;20426;-71
2023/01/01 02:09:33;;;;;;;4.13;1.50;;;;;;;17.29;67.60;99930.25;5041696;28;20042;-70
2023/01/01 02:11:58;;;;;;;3.63;1.27;;;;;;;17.32;67.24;99926.72;5046118;28;20064;-70
2023/01/01 02:14:24;;;;;;;1.48;1.10;;;;;;;17.27;67.26;99915.53;5030124;28;20076;-70
2023/01/01 02:16:57;;;;;;;2.05;1.10;;;;;;;17.29;67.31;99924.03;5039422;28;20037;-71
2023/01/01 02:19:22;;;;;;;1.88;1.10;;;;;;;17.36;67.81;99923.91;5032353;28;20025;-70
2023/01/01 02:22:06;;;;;;;2.38;1.70;;;;;;;17.38;67.60;99935.91;5031322;28;20091;-71
2023/01/01 02:25:02;;;;;;;2.35;1.45;;;;;;;17.49;66.87;99922.13;5028933;28;20063;-70
2023/01/01 02:27:43;;;;;;;2.45;1.30;;;;;;;17.35;67.23;99939.47;5031222;28;20112;-70
2023/01/01 02:30:10;;;;;;;4.40;1.83;;;;;;;17.27;67.03;99942.72;5036191;28;20044;-70
2023/01/01 02:32:43;;;;;;;6.85;1.65;;;;;;;17.25;66.81;99943.16;5039848;28;20045;-70
2023/01/01 02:37:58;;;;;;;4.82;1.63;;;;;;;17.30;66.96;99941.91;5032966;28;20029;-70
2023/01/01 02:40:26;;;;;;;3.70;1.60;;;;;;;17.42;66.20;99947.50;5029158;28;20033;-71
2023/01/01 02:42:54;;;;;;;7.15;1.63;;;;;;;17.44;66.64;99936.97;5030281;28;20403;-70
2023/01/01 02:45:21;;;;;;;4.68;1.10;;;;;;;17.37;66.18;99949.94;5031762;28;20475;-70
2023/01/01 02:47:46;;;;;;;5.68;1.50;;;;;;;17.34;66.96;99959.72;5028115;28;20119;-70
2023/01/01 02:50:24;;;;;;;5.35;1.05;;;;;;;17.29;67.45;99957.47;5032462;28;20052;-70
2023/01/01 02:53:14;;;;;;;3.10;1.33;;;;;;;17.32;67.32;99956.66;5031459;28;20115;-70
2023/01/01 02:55:54;;;;;;;6.72;1.70;;;;;;;17.34;67.54;99957.00;5016678;28;20098;-71
2023/01/01 03:01:38;;;;;;;4.57;1.67;;;;;;;17.35;71.19;99988.47;5035053;28;20053;-70
2023/01/01 03:04:42;;;;;;;4.82;1.20;;;;;;;17.35;72.17;99983.03;5032433;28;20068;-70
2023/01/01 03:07:40;;;;;;;2.80;1.38;;;;;;;17.11;73.13;99976.09;5031559;28;20033;-70
2023/01/01 03:10:17;;;;;;;6.07;1.83;;;;;;;16.72;75.95;99987.63;5034878;28;20048;-71
2023/01/01 03:13:23;;;;;;;3.45;1.50;;;;;;;16.71;76.10;99980.63;5017436;28;20044;-70
2023/01/01 03:15:59;;;;;;;2.67;1.33;;;;;;;16.92;75.48;99977.56;4989271;28;20089;-69
2023/01/01 03:18:46;;;;;;;3.90;1.20;;;;;;;16.91;76.60;99986.13;5027982;28;20041;-70
2023/01/01 03:21:15;;;;;;;3.40;1.48;;;;;;;16.84;77.41;99981.56;5025367;28;20037;-69
2023/01/01 03:23:46;;;;;;;2.95;1.58;;;;;;;16.88;77.05;99979.56;5031818;28;20041;-70
2023/01/01 03:26:12;;;;;;;;;;;;;;;16.92;77.33;99979.50;5032771;28;20445;-69
2023/01/01 03:28:51;;;;;;;4.00;1.98;;;;;;;16.87;77.38;99986.19;5032499;28;19920;-70
2023/01/01 03:31:22;;;;;;;1.70;1.20;;;;;;;16.78;77.41;99987.91;5031856;28;20487;-70
2023/01/01 03:33:53;;;;;;;3.22;1.52;;;;;;;16.76;77.29;99974.69;5032229;28;20393;-70
2023/01/01 03:36:22;;;;;;;2.88;1.70;;;;;;;16.85;77.79;99977.69;5030840;28;20041;-70
2023/01/01 03:39:40;;;;;;;4.70;1.83;;;;;;;16.75;78.39;99989.50;5032148;28;20470;-70
2023/01/01 03:42:18;;;;;;;4.13;1.48;;;;;;;16.75;78.00;99972.41;5044473;28;20053;-70
2023/01/01 03:44:47;;;;;;;4.25;1.80;;;;;;;16.79;77.13;99978.56;5027097;28;20041;-70
2023/01/01 03:47:14;;;;;;;2.47;1.50;;;;;;;16.92;77.26;99983.00;5030930;28;20037;-70
2023/01/01 03:49:40;;;;;;;3.75;1.73;;;;;;;16.85;77.21;99966.03;5031570;28;20414;-70
2023/01/01 03:52:45;;;;;;;4.30;1.77;;;;;;;16.85;77.01;99976.91;5031127;28;20033;-71
2023/01/01 03:55:25;;;;;;;2.53;1.80;;;;;;;16.89;76.06;99988.50;5024075;28;20049;-71
2023/01/01 03:58:19;;;;;;;7.05;1.60;;;;;;;16.91;75.32;100002.47;5031270;28;20041;-72
2023/01/01 04:01:00;;;;;;;7.13;2.05;;;;;;;16.89;76.19;100007.53;5028251;28;20052;-71
2023/01/01 04:03:28;;;;;;;2.88;1.80;;;;;;;16.88;76.65;100008.72;5026587;28;20044;-72
2023/01/01 04:05:54;;;;;;;2.75;1.30;;;;;;;16.88;76.02;99998.59;5047603;28;20539;-71
2023/01/01 04:08:20;;;;;;;4.97;2.05;;;;;;;16.86;75.83;100000.97;5024170;28;20033;-71
2023/01/01 04:10:50;;;;;;;7.15;2.63;;;;;;;16.89;75.93;99996.66;5028569;28;20035;-71
2023/01/01 04:13:15;;;;;;;3.35;1.98;;;;;;;16.90;75.61;99992.75;5044607;28;20036;-71
2023/01/01 04:15:41;;;;;;;4.82;1.80;;;;;;;16.87;75.91;100002.53;5031224;28;20041;-71
2023/01/01 04:18:07;;;;;;;3.38;1.67;;;;;;;16.68;76.41;100003.22;5044536;28;20418;-71
2023/01/01 04:20:32;;;;;;;5.43;1.30;;;;;;;16.66;76.30;100011.00;5037904;28;20040;-70
2023/01/01 04:22:59;;;;;;;8.57;1.75;;;;;;;16.78;75.91;100007.69;5034416;28;20033;-71
2023/01/01 04:25:26;;;;;;;4.10;1.65;;;;;;;16.86;75.98;100009.13;5036519;28;20040;-71
2023/01/01 04:27:51;;;;;;;3.55;1.75;;;;;;;17.02;74.75;100000.31;5031150;28;20029;-70
2023/01/01 04:30:18;;;;;;;3.58;1.80;;;;;;;17.07;74.29;100005.31;5028217;28;20491;-70
2023/01/01 04:32:43;;;;;;;2.47;1.60;;;;;;;17.10;74.05;100009.91;5030566;28;20035;-69
2023/01/01 04:35:13;;;;;;;7.72;1.80;;;;;;;17.06;74.58;100009.19;5027072;28;20033;-71
2023/01/01 04:37:41;;;;;;;3.03;1.50;;;;;;;17.13;73.58;100001.69;5033943;28;20035;-71
2023/01/01 04:40:08;;;;;;;6.93;1.70;;;;;;;17.05;74.67;100013.13;5032585;28;20037;-70
2023/01/01 04:42:33;;;;;;;4.47;1.77;;;;;;;17.06;73.97;100020.09;5025571;28;20064;-73
2023/01/01 04:44:59;;;;;;;2.30;1.50;;;;;;;17.13;73.82;100020.72;5022200;28;20037;-70
2023/01/01 04:47:25;;;;;;;5.28;1.55;;;;;;;16.96;73.72;100027.25;5025491;28;20029;-69
2023/01/01 04:49:52;;;;;;;4.47;1.40;;;;;;;17.06;73.41;100026.31;5022515;28;20041;-70
2023/01/01 04:52:17;;;;;;;2.35;1.50;;;;;;;17.11;72.95;100028.53;5040364;28;20025;-73
2023/01/01 04:54:43;;;;;;;2.33;1.48;;;;;;;17.10;73.07;100029.75;5021896;28;20670;-70
2023/01/01 04:57:09;;;;;;;3.13;1.80;;;;;;;17.09;72.31;100016.56;5029398;28;20544;-70
2023/01/01 04:59:35;;;;;;;3.05;1.63;;;;;;;17.11;72.00;100020.38;5028572;28;20124;-71
2023/01/01 05:02:00;;;;;;;3.30;1.60;;;;;;;17.17;71.37;100026.88;5032158;28;20474;-72
2023/01/01 05:04:26;;;;;;;6.97;1.55;;;;;;;17.09;71.86;100024.72;5029479;28;20485;-71
2023/01/01 05:06:51;;;;;;;6.28;1.50;;;;;;;17.05;71.43;100024.00;5029972;28;20033;-72
2023/01/01 05:09:17;;;;;;;5.60;1.70;;;;;;;17.14;70.86;100026.94;5033688;28;20040;-71
2023/01/01 05:11:42;;;;;;;1.98;1.13;;;;;;;17.13;71.48;100025.41;5033589;28;20060;-71
2023/01/01 05:14:08;;;;;;;2.88;1.50;;;;;;;17.22;70.77;100016.72;5031439;28;20044;-72
2023/01/01 05:16:36;;;;;;;6.40;1.52;;;;;;;17.15;70.65;100012.16;5032743;28;20033;-71
2023/01/01 05:19:03;;;;;;;5.10;1.25;;;;;;;17.20;70.11;100028.03;5032438;28;20040;-72
2023/01/01 05:21:31;;;;;;;1.48;1.10;;;;;;;17.23;70.16;100018.25;5033397;28;20030;-71
2023/01/01 05:23:59;;;;;;;3.20;1.52;;;;;;;17.22;69.67;100014.75;5032964;28;20400;-71
2023/01/01 05:26:27;;;;;;;4.25;1.85;;;;;;;17.20;69.57;100019.84;5043384;28;20037;-72
2023/01/01 05:28:53;;;;;;;5.93;1.38;;;;;;;17.21;69.12;100015.19;5040889;28;20375;-71
2023/01/01 05:31:23;;;;;;;2.03;1.40;;;;;;;17.22;68.77;100008.56;5038328;28;20028;-71
2023/01/01 05:33:49;;;;;;;1.67;1.13;;;;;;;17.24;68.41;100019.78;5029898;28;20045;-71
2023/01/01 05:36:18;;;;;;;2.85;1.40;;;;;;;17.19;67.76;100017.56;5038585;28;20116;-72
2023/01/01 05:38:44;;;;;;;5.82;1.73;;;;;;;17.19;67.65;100026.47;5040982;28;20033;-72
2023/01/01 05:41:13;;;;;;;2.80;1.42;;;;;;;17.14;67.29;100027.72;5036406;28;20038;-71
2023/01/01 05:43:39;;;;;;;1.70;0.90;;;;;;;17.22;67.33;100033.81;5031795;28;20518;-72
2023/01/01 05:46:07;;;;;;;6.72;1.60;;;;;;;17.28;66.41;100037.59;5035842;28;20116;-72
2023/01/01 05:48:35;;;;;;;3.25;1.13;;;;;;;17.17;66.65;100032.34;5029936;28;20041;-71
2023/01/01 05:51:06;;;;;;;4.38;1.40;;;;;;;17.16;66.87;100030.03;5028141;28;20167;-72
2023/01/01 05:53:32;;;;;;;3.45;2.20;;;;;;;17.11;66.13;100050.31;5035674;28;20029;-71
2023/01/01 05:55:58;;;;;;;5.50;1.15;;;;;;;17.15;66.71;100053.75;5042194;28;20041;-72
2023/01/01 05:58:24;;;;;;;4.68;1.33;;;;;;;17.10;66.04;100050.72;5039483;28;20029;-72
2023/01/01 06:00:50;;;;;;;1.70;0.98;;;;;;;17.19;65.77;100050.97;5026660;28;20034;-72
2023/01/01 06:03:16;;;;;;;6.65;1.13;;;;;;;17.17;65.66;100043.22;5029994;28;20032;-71
2023/01/01 06:05:41;;;;;;;2.72;1.10;;;;;;;17.20;64.84;100047.06;5031409;28;20501;-71
2023/01/01 06:08:09;;;;;;;3.38;1.10;;;;;;;17.20;64.40;100057.97;5033050;28;20448;-71
2023/01/01 06:10:35;;;;;;;4.00;1.30;;;;;;;17.25;64.50;100057.47;5020918;28;20033;-71
2023/01/01 06:13:00;;;;;;;3.67;0.90;;;;;;;17.30;64.01;100069.84;5035300;28;20075;-72
2023/01/01 06:15:25;;;;;;;2.55;1.42;;;;;;;17.31;63.60;100046.88;5046509;28;20037;-70
2023/01/01 06:17:51;;;;;;;3.00;1.17;;;;;;;17.32;63.76;100057.38;5023451;28;20034;-71
2023/01/01 06:20:17;;;;;;;5.13;1.10;;;;;;;17.27;63.68;100062.50;5037160;28;20025;-72
2023/01/01 06:22:42;;;;;;;7.75;1.05;;;;;;;17.21;63.47;100064.94;5035434;28;20037;-72
2023/01/01 06:25:08;;;;;;;4.38;1.38;;;;;;;17.27;63.13;100063.28;5014775;28;20080;-72
2023/01/01 06:27:35;;;;;;;1.75;0.90;;;;;;;17.23;62.82;100068.00;5025761;28;20052;-72
2023/01/01 06:30:01;;;;;;;3.10;1.23;;;;;;;17.23;63.06;100072.69;5040612;28;20025;-71
2023/01/01 06:32:26;;;;;;;3.08;0.93;;;;;;;17.21;62.56;100088.66;5039161;28;20122;-72
2023/01/01 06:34:52;;;;;;;4.57;1.35;;;;;;;17.22;62.87;100090.97;5025983;28;20435;-71
2023/01/01 06:37:17;;;;;;;5.53;1.20;;;;;;;17.22;62.34;100096.41;5026736;28;20029;-71
2023/01/01 06:39:43;;;;;;;1.83;1.00;;;;;;;17.21;62.19;100091.41;5043070;28;20387;-72
2023/01/01 06:42:08;;;;;;;7.07;1.05;;;;;;;17.37;61.46;100086.06;5042008;28;20029;-71
2023/01/01 06:44:34;;;;;;;1.38;0.68;;;;;;;17.33;61.39;100088.84;5039363;28;20383;-71
2023/01/01 06:46:59;;;;;;;5.28;0.90;;;;;;;17.39;61.18;100083.69;5036287;28;20545;-71
2023/01/01 06:49:25;;;;;;;3.45;0.77;;;;;;;17.43;61.50;100104.25;5032048;28;20083;-70
2023/01/01 06:51:51;;;;;;;2.53;0.95;;;;;;;17.32;61.38;100117.25;5011488;28;20112;-69
2023/01/01 06:54:16;;;;;;;1.27;0.93;;;;;;;17.20;62.02;100106.94;5032106;28;20107;-71
2023/01/01 06:56:42;;;;;;;6.03;0.90;;;;;;;17.23;62.36;100127.13;5034848;28;20069;-69
2023/01/01 06:59:07;;;;;;;1.30;0.70;;;;;;;17.05;62.36;100122.69;5036700;28;20187;-70
2023/01/01 07:01:35;;;;;;;3.75;1.08;;;;;;;17.20;62.63;100127.94;5029545;28;20025;-70
2023/01/01 07:04:03;;;;;;;2.15;0.95;;;;;;;17.19;61.98;100132.59;5032810;28;20045;-69
2023/01/01 07:06:31;;;;;;;2.25;0.80;;;;;;;17.26;61.70;100132.53;5028454;28;20037;-71
2023/01/01 07:08:56;;;;;;;5.18;0.73;;;;;;;17.30;61.23;100130.50;5035068;28;20100;-69
2023/01/01 07:11:23;;;;;;;4.90;0.90;;;;;;;17.36;61.35;100145.19;5027111;28;20116;-70
2023/01/01 07:13:48;;;;;;;1.80;1.13;;;;;;;17.30;61.07;100132.47;5036359;28;20119;-69
2023/01/01 07:16:14;;;;;;;1.50;0.70;;;;;;;17.08;62.42;100126.56;5041929;28;20024;-69
2023/01/01 07:18:40;;;;;;;0.75;0.50;;;;;;;17.22;61.84;100120.91;5037964;28;20501;-71
2023/01/01 07:21:30;;;;;;;3.08;0.98;;;;;;;17.23;60.76;100106.09;5031230;28;20037;-71
2023/01/01 07:24:01;;;;;;;1.75;0.90;;;;;;;17.19;61.36;100121.72;5033464;28;20102;-71
2023/01/01 07:26:28;;;;;;;1.08;0.70;;;;;;;17.02;62.54;100117.31;5039292;28;20048;-73
2023/01/01 07:28:54;;;;;;;2.78;0.65;;;;;;;17.07;61.44;100125.78;5029049;28;20112;-72
2023/01/01 07:31:20;;;;;;;2.95;1.08;;;;;;;17.07;61.30;100152.25;5029877;28;20029;-72
2023/01/01 07:33:45;;;;;;;2.70;1.30;;;;;;;17.07;60.83;100144.09;5031456;28;20033;-70
2023/01/01 07:36:11;;;;;;;2.13;0.60;;;;;;;17.08;61.43;100162.72;5034672;28;20021;-72
2023/01/01 07:38:36;;;;;;;1.80;0.85;;;;;;;17.14;61.03;100163.81;5026318;28;20036;-72
2023/01/01 07:41:02;;;;;;;0.68;0.38;;;;;;;17.11;60.89;100166.56;5028216;28;20044;-71
2023/01/01 07:43:27;;;;;;;1.80;0.40;;;;;;;17.11;60.67;100163.84;5029629;28;20037;-71
2023/01/01 07:45:52;;;;;;;0.85;0.70;;;;;;;17.21;61.03;100181.22;5031369;28;20060;-70
2023/01/01 07:48:18;;;;;;;4.78;0.77;;;;;;;17.15;60.48;100178.16;5027594;28;20037;-70
2023/01/01 07:50:43;;;;;;;3.25;0.52;;;;;;;17.08;60.95;100189.16;5019492;28;20104;-71
2023/01/01 07:53:10;;;;;;;2.00;0.75;;;;;;;17.06;60.47;100196.94;5022701;28;20703;-71
2023/01/01 07:55:36;;;;;;;1.83;0.38;;;;;;;17.06;60.49;100210.56;5031133;28;20037;-72
2023/01/01 07:58:01;;;;;;;0.80;0.52;;;;;;;17.05;60.21;100188.00;5023834;28;20037;-73
2023/01/01 08:00:28;;;;;;;3.00;0.60;;;;;;;17.02;61.33;100188.06;5028075;28;20040;-72
2023/01/01 08:02:53;;;;;;;0.73;0.30;;;;;;;16.93;60.66;100202.19;5038226;28;20033;-71
2023/01/01 08:05:19;;;;;;;1.73;0.55;;;;;;;16.99;60.21;100208.69;5036262;28;20028;-71
2023/01/01 08:07:46;;;;;;;2.95;0.60;;;;;;;17.10;59.84;100214.78;5030170;28;20029;-70
2023/01/01 08:10:12;;;;;;;1.55;0.75;;;;;;;17.13;59.98;100221.34;5035227;28;20075;-71
2023/01/01 08:12:37;;;;;;;0.50;0.47;;;;;;;17.07;60.39;100231.16;5042944;28;20061;-71
2023/01/01 08:15:03;;;;;;;0.88;0.52;;;;;;;17.07;59.82;100231.91;5039273;28;20533;-71
2023/01/01 08:17:28;;;;;;;2.88;0.80;;;;;;;16.84;60.52;100229.09;5022460;28;20044;-72
2023/01/01 08:19:54;;;;;;;2.47;0.32;;;;;;;16.96;61.03;100238.66;5019328;28;20043;-72
2023/01/01 08:22:19;;;;;;;0.80;0.50;;;;;;;17.01;60.65;100262.72;5026143;28;20080;-74
2023/01/01 08:24:45;;;;;;;1.10;0.80;;;;;;;17.00;60.32;100263.88;5031242;28;20032;-70
2023/01/01 08:27:15;;;;;;;0.93;0.40;;;;;;;16.98;60.32;100249.91;5021930;28;20029;-72
2023/01/01 08:29:41;;;;;;;3.58;0.63;;;;;;;16.93;60.38;100256.59;5013467;28;20128;-73
2023/01/01 08:32:08;;;;;;;1.55;0.47;;;;;;;17.08;60.21;100268.06;5026606;28;20021;-72
2023/01/01 08:34:34;;;;;;;0.65;0.45;;;;;;;16.95;60.70;100269.78;5023711;28;20080;-71
2023/01/01 08:36:59;;;;;;;1.27;0.73;;;;;;;16.91;60.87;100274.50;5033394;28;20044;-70
2023/01/01 08:39:25;;;;;;;0.75;0.43;;;;;;;16.86;61.20;100266.78;5040840;28;20474;-70
2023/01/01 08:41:50;;;;;;;1.17;0.77;;;;;;;16.98;60.81;100279.84;5044107;28;20042;-70
2023/01/01 08:44:16;;;;;;;0.73;0.63;;;;;;;16.98;60.55;100285.28;5031786;28;20083;-70
2023/01/01 08:46:41;;;;;;;1.80;0.68;;;;;;;17.01;60.56;100292.66;5041064;28;20059;-70
2023/01/01 08:49:06;;;;;;;0.47;0.35;;;;;;;16.93;61.00;100289.25;5040931;28;20041;-70
2023/01/01 08:51:32;;;;;;;1.05;0.40;;;;;;;16.93;61.22;100283.81;5028827;28;20045;-74
2023/01/01 08:53:57;;;;;;;2.72;1.20;;;;;;;16.87;61.59;100299.03;5025895;28;20099;-71
2023/01/01 08:56:23;;;;;;;0.65;0.45;;;;;;;16.91;61.99;100290.81;5025690;28;20041;-70
2023/01/01 08:58:48;;;;;;;1.27;0.73;;;;;;;16.93;61.78;100311.00;5012927;28;20036;-70
2023/01/01 09:01:14;;;;;;;1.95;0.60;;;;;;;17.00;61.19;100310.91;5025548;28;20052;-71
2023/01/01 09:03:39;;;;;;;3.25;0.95;;;;;;;16.91;60.75;100312.59;5029106;28;20493;-72
2023/01/01 09:06:05;;;;;;;0.70;0.40;;;;;;;16.90;61.16;100325.41;5037136;28;20052;-70
2023/01/01 09:08:31;;;;;;;1.00;0.40;;;;;;;16.96;60.14;100331.16;5030847;28;20030;-70
2023/01/01 09:10:59;;;;;;;2.85;0.40;;;;;;;16.83;59.49;100347.25;5034566;28;20428;-70
2023/01/01 09:13:24;;;;;;;1.73;0.30;;;;;;;16.75;58.99;100342.28;5047611;28;20086;-71
2023/01/01 09:15:50;;;;;;;1.35;0.47;;;;;;;16.79;58.36;100349.22;5031867;28;20448;-71
2023/01/01 09:18:15;;;;;;;1.23;0.40;;;;;;;16.85;58.03;100350.34;5026976;28;20033;-71
2023/01/01 09:20:41;;;;;;;1.15;0.30;;;;;;;16.80;59.13;100356.19;5047664;28;20496;-70
2023/01/01 09:23:07;;;;;;;1.60;0.43;;;;;;;16.79;58.49;100353.91;5048138;28;20025;-71
2023/01/01 09:25:33;;;;;;;0.95;0.47;;;;;;;16.84;58.58;100356.94;5034319;28;20047;-71
2023/01/01 09:28:04;;;;;;;6.13;0.40;;;;;;;16.94;58.07;100368.88;5029718;28;20045;-71
2023/01/01 09:30:31;;;;;;;3.70;0.57;;;;;;;16.98;57.34;100361.47;5035956;28;20393;-68
2023/01/01 09:32:57;;;;;;;3.55;0.98;;;;;;;16.93;57.74;100365.41;5033246;28;20793;-68
2023/01/01 09:35:22;;;;;;;2.85;0.57;;;;;;;17.01;57.71;100377.75;5034489;28;20037;-69
2023/01/01 09:37:48;;;;;;;0.75;0.50;;;;;;;16.85;57.39;100388.44;5039534;28;20057;-69
2023/01/01 09:40:26;;;;;;;1.20;0.40;;;;;;;16.54;57.69;100396.84;5037431;28;20053;-69
2023/01/01 09:43:13;;;;;;;1.80;0.38;;;;;;;16.67;57.79;100401.41;5029923;28;20116;-69
2023/01/01 09:46:00;;;;;;;0.73;0.40;;;;;;;16.79;57.79;100406.34;5045890;28;20037;-70
2023/01/01 09:48:28;;;;;;;0.40;0.20;;;;;;;16.88;58.63;100416.75;5026397;28;20560;-69
2023/01/01 09:50:54;;;;;;;0.90;0.50;;;;;;;16.87;58.29;100407.84;5033318;28;20026;-69
2023/01/01 09:53:44;;;;;;;0.45;0.28;;;;;;;16.84;58.68;100438.56;5029162;28;20040;-69
2023/01/01 09:56:18;;;;;;;0.50;0.30;;;;;;;16.95;59.04;100433.03;5033548;28;20578;-69
2023/01/01 09:58:44;;;;;;;2.50;0.60;;;;;;;16.84;60.90;100438.56;5025625;28;20033;-69
2023/01/01 10:01:37;;;;;;;2.40;0.40;;;;;;;16.89;60.26;100429.97;5031216;28;20036;-72
2023/01/01 10:04:21;;;;;;;0.85;0.45;;;;;;;16.98;60.81;100426.75;5027418;28;20033;-71
2023/01/01 10:06:59;;;;;;;0.68;0.40;;;;;;;17.09;60.50;100428.22;5030386;28;20057;-72
2023/01/01 10:09:38;;;;;;;1.35;0.40;;;;;;;16.98;61.46;100443.88;5044525;28;20033;-70
2023/01/01 10:12:34;;;;;;;0.57;0.38;;;;;;;17.01;61.07;100445.78;5038964;28;20108;-71
2023/01/01 10:15:12;;;;;;;0.55;0.55;;;;;;;17.01;61.34;100453.94;5044995;28;20064;-71
2023/01/01 10:17:43;;;;;;;0.90;0.47;;;;;;;17.09;61.31;100466.31;5033054;28;20057;-70
2023/01/01 10:20:23;;;;;;;2.60;0.30;;;;;;;16.93;61.11;100457.16;5058975;28;20037;-70
2023/01/01 10:22:56;;;;;;;1.10;0.60;;;;;;;16.86;60.32;100465.38;5028862;28;20306;-71
2023/01/01 10:25:30;;;;;;;1.60;0.40;;;;;;;16.82;59.65;100446.34;5044519;28;20029;-70
2023/01/01 10:28:10;;;;;;;2.72;0.73;;;;;;;16.90;59.29;100468.81;5038136;28;20033;-70
2023/01/01 10:30:35;;;;;;;1.80;0.60;;;;;;;16.97;59.10;100457.88;5035484;28;20037;-70
2023/01/01 10:33:04;;;;;;;1.20;0.63;;;;;;;17.07;58.28;100465.94;5032090;28;20394;-70
2023/01/01 10:35:37;;;;;;;2.30;0.20;;;;;;;17.03;58.30;100456.28;5031481;28;20036;-70
2023/01/01 10:38:03;;;;;;;3.30;0.60;;;;;;;17.03;58.80;100456.28;5031200;28;20571;-70
2023/01/01 10:40:29;;;;;;;5.15;0.63;;;;;;;17.06;58.86;100453.53;5034207;28;20041;-70
2023/01/01 10:42:57;;;;;;;1.88;0.50;;;;;;;17.06;59.14;100452.75;5031941;28;20112;-70
2023/01/01 10:45:34;;;;;;;1.48;0.52;;;;;;;17.14;59.69;100462.38;5032804;28;20044;-71
2023/01/01 10:48:13;;;;;;;0.85;0.40;;;;;;;16.97;60.97;100453.22;5031056;28;20383;-71
2023/01/01 10:51:02;;;;;;;1.20;0.57;;;;;;;17.07;60.18;100465.19;5042260;28;20034;-71
2023/01/01 10:53:35;;;;;;;1.00;0.80;;;;;;;17.07;60.00;100463.22;5053259;28;20037;-70
2023/01/01 10:56:13;;;;;;;0.60;0.52;;;;;;;17.14;60.02;100468.59;5042819;28;20048;-72
2023/01/01 10:58:44;;;;;;;0.43;0.43;;;;;;;17.03;59.15;100459.75;5045745;28;20037;-71
2023/01/01 11:01:17;;;;;;;2.63;0.40;;;;;;;16.91;59.16;100449.38;5037204;28;20064;-71
2023/01/01 11:04:19;;;;;;;1.08;0.30;;;;;;;17.06;58.65;100461.69;5035012;28;20049;-70
2023/01/01 11:06:46;;;;;;;0.65;0.35;;;;;;;17.09;56.44;100465.56;5008681;28;20405;-69
2023/01/01 11:09:22;;;;;;;0.80;0.40;;;;;;;17.06;54.96;100461.69;5037648;28;20033;-71
2023/01/01 11:12:03;;;;;;;0.30;0.20;;;;;;;16.86;53.60;100470.81;5041478;28;20083;-71
2023/01/01 11:14:37;;;;;;;1.13;0.75;;;;;;;16.88;53.46;100490.97;5031669;28;20033;-72
2023/01/01 11:17:04;;;;;;;0.45;0.20;;;;;;;16.78;53.08;100467.34;5042518;28;20059;-71
2023/01/01 11:19:32;;;;;;;0.38;0.30;;;;;;;16.82;52.60;100478.22;5050714;28;20025;-70
2023/01/01 11:21:59;;;;;;;0.63;0.30;;;;;;;16.85;52.43;100482.84;5041064;28;20029;-71
2023/01/01 11:24:27;;;;;;;0.55;0.35;;;;;;;17.01;51.75;100469.50;5043213;28;20035;-72
2023/01/01 11:27:10;;;;;;;2.00;0.20;;;;;;;16.79;51.46;100477.06;5042129;28;20021;-72
2023/01/01 11:29:36;;;;;;;0.20;0.20;;;;;;;16.68;52.18;100491.94;5029357;28;20404;-71
2023/01/01 11:32:06;;;;;;;2.28;0.30;;;;;;;16.82;51.90;100486.41;5037118;28;20116;-70
2023/01/01 11:34:31;;;;;;;0.32;0.15;;;;;;;16.87;51.76;100503.06;5037159;28;20037;-71
2023/01/01 11:37:13;;;;;;;0.43;0.05;;;;;;;17.05;51.53;100511.81;5037569;28;20094;-72
2023/01/01 11:39:47;;;;;;;0.85;0.05;;;;;;;17.12;51.57;100519.94;5030518;28;20033;-72
2023/01/01 11:42:19;;;;;;;1.48;0.40;;;;;;;17.00;51.18;100508.78;5038070;28;20108;-71
2023/01/01 11:44:49;;;;;;;0.10;0.10;;;;;;;17.14;51.37;100511.38;5039264;28;20129;-71
2023/01/01 11:47:24;;;;;;;2.10;0.52;;;;;;;17.07;51.75;100522.34;5041799;28;20061;-72
2023/01/01 11:49:58;;;;;;;0.90;0.30;;;;;;;17.16;51.56;100519.91;5038654;28;20037;-71